sensor_id;sensor_type;location;lat;lon;timestamp;P1;durP1;ratioP1;P2;durP2;ratioP2
9461;SDS011;4769;42.660;23.262;2023-09-19T00:01:41;7.15;;;5.72;;
9461;SDS011;4769;42.660;23.262;2023-09-19T00:04:11;7.32;;;5.20;;
9461;SDS011;4769;42.660;23.262;2023-09-19T00:06:36;8.82;;;6.10;;
9461;SDS011;4769;42.660;23.262;2023-09-19T00:09:02;6.53;;;5.93;;
9461;SDS011;4769;42.660;23.262;2023-09-19T00:11:28;6.15;;;5.30;;
9461;SDS011;4769;42.660;23.262;2023-09-19T00:13:54;6.50;;;5.90;;
9461;SDS011;4769;42.660;23.262;2023-09-19T00:16:20;6.38;;;5.70;;
9461;SDS011;4769;42.660;23.262;2023-09-19T00:18:46;6.80;;;6.20;;
9461;SDS011;4769;42.660;23.262;2023-09-19T00:21:14;6.63;;;5.78;;
9461;SDS011;4769;42.660;23.262;2023-09-19T00:23:40;7.85;;;6.30;;
9461;SDS011;4769;42.660;23.262;2023-09-19T00:26:05;9.00;;;6.80;;
9461;SDS011;4769;42.660;23.262;2023-09-19T00:28:31;7.53;;;6.40;;
9461;SDS011;4769;42.660;23.262;2023-09-19T00:30:57;7.68;;;6.15;;
9461;SDS011;4769;42.660;23.262;2023-09-19T00:33:23;7.05;;;6.10;;
9461;SDS011;4769;42.660;23.262;2023-09-19T00:35:48;6.32;;;5.72;;
9461;SDS011;4769;42.660;23.262;2023-09-19T00:38:17;6.13;;;5.55;;
9461;SDS011;4769;42.660;23.262;2023-09-19T00:40:43;8.82;;;6.75;;
9461;SDS011;4769;42.660;23.262;2023-09-19T00:43:09;7.43;;;6.55;;
9461;SDS011;4769;42.660;23.262;2023-09-19T00:45:35;7.38;;;6.43;;
9461;SDS011;4769;42.660;23.262;2023-09-19T00:48:02;6.70;;;6.10;;
9461;SDS011;4769;42.660;23.262;2023-09-19T00:50:28;7.07;;;6.18;;
9461;SDS011;4769;42.660;23.262;2023-09-19T00:52:55;7.47;;;6.65;;
9461;SDS011;4769;42.660;23.262;2023-09-19T00:55:23;7.32;;;6.35;;
9461;SDS011;4769;42.660;23.262;2023-09-19T00:57:50;7.22;;;6.25;;
9461;SDS011;4769;42.660;23.262;2023-09-19T01:00:16;6.75;;;6.05;;
9461;SDS011;4769;42.660;23.262;2023-09-19T01:02:42;7.55;;;6.22;;
9461;SDS011;4769;42.660;23.262;2023-09-19T01:05:08;6.80;;;6.15;;
9461;SDS011;4769;42.660;23.262;2023-09-19T01:07:34;8.57;;;6.00;;
9461;SDS011;4769;42.660;23.262;2023-09-19T01:10:00;8.70;;;6.32;;
9461;SDS011;4769;42.660;23.262;2023-09-19T01:12:44;7.63;;;6.28;;
9461;SDS011;4769;42.660;23.262;2023-09-19T01:15:15;6.47;;;5.88;;
9461;SDS011;4769;42.660;23.262;2023-09-19T01:17:53;6.95;;;6.15;;
9461;SDS011;4769;42.660;23.262;2023-09-19T01:20:27;8.48;;;5.97;;
9461;SDS011;4769;42.660;23.262;2023-09-19T01:23:07;6.53;;;5.93;;
9461;SDS011;4769;42.660;23.262;2023-09-19T01:25:46;10.13;;;6.47;;
9461;SDS011;4769;42.660;23.262;2023-09-19T01:28:34;7.20;;;6.25;;
9461;SDS011;4769;42.660;23.262;2023-09-19T01:31:13;7.43;;;6.65;;
9461;SDS011;4769;42.660;23.262;2023-09-19T01:36:21;12.80;;;6.22;;
9461;SDS011;4769;42.660;23.262;2023-09-19T01:38:47;7.35;;;6.65;;
9461;SDS011;4769;42.660;23.262;2023-09-19T01:41:12;9.43;;;6.57;;
9461;SDS011;4769;42.660;23.262;2023-09-19T01:43:47;6.93;;;6.00;;
9461;SDS011;4769;42.660;23.262;2023-09-19T01:46:18;9.50;;;5.80;;
9461;SDS011;4769;42.660;23.262;2023-09-19T01:48:49;6.70;;;6.10;;
9461;SDS011;4769;42.660;23.262;2023-09-19T01:51:32;8.07;;;6.38;;
9461;SDS011;4769;42.660;23.262;2023-09-19T01:54:03;6.53;;;5.95;;
9461;SDS011;4769;42.660;23.262;2023-09-19T01:56:34;7.35;;;6.65;;
9461;SDS011;4769;42.660;23.262;2023-09-19T01:59:06;7.13;;;6.53;;
9461;SDS011;4769;42.660;23.262;2023-09-19T02:01:38;7.25;;;6.50;;
9461;SDS011;4769;42.660;23.262;2023-09-19T02:04:05;9.75;;;6.32;;
9461;SDS011;4769;42.660;23.262;2023-09-19T02:06:32;7.50;;;6.13;;
9461;SDS011;4769;42.660;23.262;2023-09-19T02:08:57;10.45;;;7.05;;
9461;SDS011;4769;42.660;23.262;2023-09-19T02:11:24;7.32;;;6.00;;
9461;SDS011;4769;42.660;23.262;2023-09-19T02:13:49;7.50;;;6.70;;
9461;SDS011;4769;42.660;23.262;2023-09-19T02:16:16;7.72;;;6.30;;
9461;SDS011;4769;42.660;23.262;2023-09-19T02:18:44;7.65;;;6.28;;
9461;SDS011;4769;42.660;23.262;2023-09-19T02:21:10;11.10;;;6.18;;
9461;SDS011;4769;42.660;23.262;2023-09-19T02:23:36;7.95;;;6.43;;
9461;SDS011;4769;42.660;23.262;2023-09-19T02:26:01;7.50;;;6.80;;
9461;SDS011;4769;42.660;23.262;2023-09-19T02:28:27;7.25;;;6.30;;
9461;SDS011;4769;42.660;23.262;2023-09-19T02:30:53;7.07;;;6.38;;
9461;SDS011;4769;42.660;23.262;2023-09-19T02:33:18;8.35;;;6.32;;
9461;SDS011;4769;42.660;23.262;2023-09-19T02:35:47;7.15;;;6.35;;
9461;SDS011;4769;42.660;23.262;2023-09-19T02:38:13;8.40;;;6.40;;
9461;SDS011;4769;42.660;23.262;2023-09-19T02:40:38;9.95;;;6.47;;
9461;SDS011;4769;42.660;23.262;2023-09-19T02:43:04;8.57;;;6.63;;
9461;SDS011;4769;42.660;23.262;2023-09-19T02:45:30;7.47;;;6.60;;
9461;SDS011;4769;42.660;23.262;2023-09-19T02:47:56;8.43;;;6.68;;
9461;SDS011;4769;42.660;23.262;2023-09-19T02:50:22;10.45;;;6.70;;
9461;SDS011;4769;42.660;23.262;2023-09-19T02:52:50;7.75;;;6.65;;
9461;SDS011;4769;42.660;23.262;2023-09-19T02:55:17;7.43;;;6.40;;
9461;SDS011;4769;42.660;23.262;2023-09-19T02:57:45;7.82;;;6.57;;
9461;SDS011;4769;42.660;23.262;2023-09-19T03:00:12;7.32;;;6.65;;
9461;SDS011;4769;42.660;23.262;2023-09-19T03:02:39;7.65;;;6.68;;
9461;SDS011;4769;42.660;23.262;2023-09-19T03:05:05;7.60;;;6.80;;
9461;SDS011;4769;42.660;23.262;2023-09-19T03:07:31;7.50;;;6.78;;
9461;SDS011;4769;42.660;23.262;2023-09-19T03:09:59;11.05;;;6.57;;
9461;SDS011;4769;42.660;23.262;2023-09-19T03:12:25;8.55;;;6.75;;
9461;SDS011;4769;42.660;23.262;2023-09-19T03:14:51;7.28;;;6.57;;
9461;SDS011;4769;42.660;23.262;2023-09-19T03:17:17;8.43;;;6.65;;
9461;SDS011;4769;42.660;23.262;2023-09-19T03:19:42;7.85;;;6.63;;
9461;SDS011;4769;42.660;23.262;2023-09-19T03:22:08;7.10;;;6.40;;
9461;SDS011;4769;42.660;23.262;2023-09-19T03:24:34;8.25;;;6.68;;
9461;SDS011;4769;42.660;23.262;2023-09-19T03:27:02;8.00;;;6.53;;
9461;SDS011;4769;42.660;23.262;2023-09-19T03:29:28;8.05;;;5.97;;
9461;SDS011;4769;42.660;23.262;2023-09-19T03:31:54;7.28;;;6.60;;
9461;SDS011;4769;42.660;23.262;2023-09-19T03:34:20;7.15;;;6.45;;
9461;SDS011;4769;42.660;23.262;2023-09-19T03:36:46;7.60;;;6.30;;
9461;SDS011;4769;42.660;23.262;2023-09-19T03:39:12;7.03;;;6.40;;
9461;SDS011;4769;42.660;23.262;2023-09-19T03:41:38;7.35;;;6.60;;
9461;SDS011;4769;42.660;23.262;2023-09-19T03:44:06;7.97;;;7.10;;
9461;SDS011;4769;42.660;23.262;2023-09-19T03:46:32;8.38;;;6.07;;
9461;SDS011;4769;42.660;23.262;2023-09-19T03:48:57;7.40;;;6.68;;
9461;SDS011;4769;42.660;23.262;2023-09-19T03:51:23;9.85;;;7.07;;
9461;SDS011;4769;42.660;23.262;2023-09-19T03:53:49;9.30;;;6.53;;
9461;SDS011;4769;42.660;23.262;2023-09-19T03:56:14;7.43;;;6.72;;
9461;SDS011;4769;42.660;23.262;2023-09-19T03:58:40;8.95;;;6.88;;
9461;SDS011;4769;42.660;23.262;2023-09-19T04:01:08;10.52;;;6.35;;
9461;SDS011;4769;42.660;23.262;2023-09-19T04:03:34;7.80;;;7.00;;
9461;SDS011;4769;42.660;23.262;2023-09-19T04:06:00;7.32;;;6.53;;
9461;SDS011;4769;42.660;23.262;2023-09-19T04:08:26;9.73;;;6.93;;
9461;SDS011;4769;42.660;23.262;2023-09-19T04:10:51;10.25;;;7.30;;
9461;SDS011;4769;42.660;23.262;2023-09-19T04:13:17;6.75;;;6.15;;
9461;SDS011;4769;42.660;23.262;2023-09-19T04:15:42;8.18;;;7.32;;
9461;SDS011;4769;42.660;23.262;2023-09-19T04:18:11;7.13;;;6.43;;
9461;SDS011;4769;42.660;23.262;2023-09-19T04:20:36;10.00;;;7.32;;
9461;SDS011;4769;42.660;23.262;2023-09-19T04:23:02;12.02;;;7.53;;
9461;SDS011;4769;42.660;23.262;2023-09-19T04:25:28;8.07;;;6.85;;
9461;SDS011;4769;42.660;23.262;2023-09-19T04:27:54;7.75;;;7.00;;
9461;SDS011;4769;42.660;23.262;2023-09-19T04:30:19;9.10;;;7.70;;
9461;SDS011;4769;42.660;23.262;2023-09-19T04:32:45;10.73;;;6.85;;
9461;SDS011;4769;42.660;23.262;2023-09-19T04:35:13;13.18;;;6.85;;
9461;SDS011;4769;42.660;23.262;2023-09-19T04:37:39;11.63;;;7.05;;
9461;SDS011;4769;42.660;23.262;2023-09-19T04:40:06;10.93;;;7.00;;
9461;SDS011;4769;42.660;23.262;2023-09-19T04:42:33;8.15;;;7.32;;
9461;SDS011;4769;42.660;23.262;2023-09-19T04:44:58;9.57;;;7.80;;
9461;SDS011;4769;42.660;23.262;2023-09-19T04:47:24;10.93;;;7.28;;
9461;SDS011;4769;42.660;23.262;2023-09-19T04:49:50;8.88;;;7.55;;
9461;SDS011;4769;42.660;23.262;2023-09-19T04:52:18;9.32;;;7.63;;
9461;SDS011;4769;42.660;23.262;2023-09-19T04:54:44;9.95;;;7.60;;
9461;SDS011;4769;42.660;23.262;2023-09-19T04:57:12;8.68;;;7.40;;
9461;SDS011;4769;42.660;23.262;2023-09-19T04:59:38;11.43;;;8.10;;
9461;SDS011;4769;42.660;23.262;2023-09-19T05:02:03;14.10;;;7.50;;
9461;SDS011;4769;42.660;23.262;2023-09-19T05:04:29;9.38;;;7.50;;
9461;SDS011;4769;42.660;23.262;2023-09-19T05:06:55;8.32;;;7.22;;
9461;SDS011;4769;42.660;23.262;2023-09-19T05:09:23;11.02;;;7.68;;
9461;SDS011;4769;42.660;23.262;2023-09-19T05:11:49;9.05;;;7.53;;
9461;SDS011;4769;42.660;23.262;2023-09-19T05:14:15;10.73;;;7.22;;
9461;SDS011;4769;42.660;23.262;2023-09-19T05:16:40;11.40;;;8.20;;
9461;SDS011;4769;42.660;23.262;2023-09-19T05:19:06;13.70;;;7.93;;
9461;SDS011;4769;42.660;23.262;2023-09-19T05:21:32;9.98;;;9.00;;
9461;SDS011;4769;42.660;23.262;2023-09-19T05:23:57;11.15;;;8.35;;
9461;SDS011;4769;42.660;23.262;2023-09-19T05:26:25;10.40;;;7.20;;
9461;SDS011;4769;42.660;23.262;2023-09-19T05:28:51;10.35;;;7.65;;
9461;SDS011;4769;42.660;23.262;2023-09-19T05:31:17;8.80;;;7.20;;
9461;SDS011;4769;42.660;23.262;2023-09-19T05:33:42;8.02;;;6.75;;
9461;SDS011;4769;42.660;23.262;2023-09-19T05:36:08;9.98;;;6.55;;
9461;SDS011;4769;42.660;23.262;2023-09-19T05:38:34;7.82;;;6.70;;
9461;SDS011;4769;42.660;23.262;2023-09-19T05:40:59;8.57;;;6.80;;
9461;SDS011;4769;42.660;23.262;2023-09-19T05:43:28;9.18;;;7.20;;
9461;SDS011;4769;42.660;23.262;2023-09-19T05:45:53;9.73;;;7.45;;
9461;SDS011;4769;42.660;23.262;2023-09-19T05:48:19;12.15;;;7.32;;
9461;SDS011;4769;42.660;23.262;2023-09-19T05:50:44;13.25;;;7.00;;
9461;SDS011;4769;42.660;23.262;2023-09-19T05:53:10;10.68;;;7.45;;
9461;SDS011;4769;42.660;23.262;2023-09-19T05:55:36;11.20;;;8.05;;
9461;SDS011;4769;42.660;23.262;2023-09-19T05:58:01;8.55;;;7.38;;
9461;SDS011;4769;42.660;23.262;2023-09-19T06:00:30;8.32;;;7.25;;
9461;SDS011;4769;42.660;23.262;2023-09-19T06:02:56;9.95;;;7.07;;
9461;SDS011;4769;42.660;23.262;2023-09-19T06:05:23;12.77;;;9.95;;
9461;SDS011;4769;42.660;23.262;2023-09-19T06:07:50;13.13;;;8.88;;
9461;SDS011;4769;42.660;23.262;2023-09-19T06:10:16;11.50;;;9.10;;
9461;SDS011;4769;42.660;23.262;2023-09-19T06:12:41;9.13;;;7.88;;
9461;SDS011;4769;42.660;23.262;2023-09-19T06:15:08;10.02;;;8.90;;
9461;SDS011;4769;42.660;23.262;2023-09-19T06:17:36;11.90;;;8.77;;
9461;SDS011;4769;42.660;23.262;2023-09-19T06:20:02;12.73;;;9.55;;
9461;SDS011;4769;42.660;23.262;2023-09-19T06:22:29;12.32;;;9.18;;
9461;SDS011;4769;42.660;23.262;2023-09-19T06:24:54;12.73;;;9.38;;
9461;SDS011;4769;42.660;23.262;2023-09-19T06:27:20;11.02;;;9.32;;
9461;SDS011;4769;42.660;23.262;2023-09-19T06:29:46;12.05;;;8.90;;
9461;SDS011;4769;42.660;23.262;2023-09-19T06:32:11;12.52;;;9.07;;
9461;SDS011;4769;42.660;23.262;2023-09-19T06:34:40;10.77;;;8.27;;
9461;SDS011;4769;42.660;23.262;2023-09-19T06:37:05;9.68;;;7.70;;
9461;SDS011;4769;42.660;23.262;2023-09-19T06:39:31;8.05;;;7.25;;
9461;SDS011;4769;42.660;23.262;2023-09-19T06:41:57;14.13;;;7.93;;
9461;SDS011;4769;42.660;23.262;2023-09-19T06:44:23;10.18;;;7.50;;
9461;SDS011;4769;42.660;23.262;2023-09-19T06:46:48;10.65;;;7.22;;
9461;SDS011;4769;42.660;23.262;2023-09-19T06:49:14;11.48;;;7.10;;
9461;SDS011;4769;42.660;23.262;2023-09-19T06:51:42;10.50;;;8.10;;
9461;SDS011;4769;42.660;23.262;2023-09-19T06:54:08;14.35;;;7.97;;
9461;SDS011;4769;42.660;23.262;2023-09-19T06:56:34;7.85;;;7.05;;
9461;SDS011;4769;42.660;23.262;2023-09-19T06:59:00;9.32;;;7.40;;
9461;SDS011;4769;42.660;23.262;2023-09-19T07:01:26;9.30;;;7.45;;
9461;SDS011;4769;42.660;23.262;2023-09-19T07:03:51;8.43;;;7.55;;
9461;SDS011;4769;42.660;23.262;2023-09-19T07:06:17;9.02;;;7.50;;
9461;SDS011;4769;42.660;23.262;2023-09-19T07:08:45;7.35;;;6.25;;
9461;SDS011;4769;42.660;23.262;2023-09-19T07:11:11;8.00;;;7.07;;
9461;SDS011;4769;42.660;23.262;2023-09-19T07:13:36;8.15;;;7.35;;
9461;SDS011;4769;42.660;23.262;2023-09-19T07:16:02;10.90;;;7.28;;
9461;SDS011;4769;42.660;23.262;2023-09-19T07:18:28;13.40;;;7.60;;
9461;SDS011;4769;42.660;23.262;2023-09-19T07:20:56;10.43;;;7.53;;
9461;SDS011;4769;42.660;23.262;2023-09-19T07:23:22;8.23;;;7.32;;
9461;SDS011;4769;42.660;23.262;2023-09-19T07:25:50;14.13;;;7.80;;
9461;SDS011;4769;42.660;23.262;2023-09-19T07:28:21;9.23;;;7.57;;
9461;SDS011;4769;42.660;23.262;2023-09-19T07:30:47;11.38;;;7.53;;
9461;SDS011;4769;42.660;23.262;2023-09-19T07:33:12;7.82;;;7.03;;
9461;SDS011;4769;42.660;23.262;2023-09-19T07:35:38;9.65;;;7.03;;
9461;SDS011;4769;42.660;23.262;2023-09-19T07:38:04;9.63;;;6.97;;
9461;SDS011;4769;42.660;23.262;2023-09-19T07:40:30;9.73;;;7.30;;
9461;SDS011;4769;42.660;23.262;2023-09-19T07:42:58;9.88;;;7.55;;
9461;SDS011;4769;42.660;23.262;2023-09-19T07:45:24;10.13;;;7.43;;
9461;SDS011;4769;42.660;23.262;2023-09-19T07:47:50;10.23;;;7.65;;
9461;SDS011;4769;42.660;23.262;2023-09-19T07:50:17;11.98;;;8.93;;
9461;SDS011;4769;42.660;23.262;2023-09-19T07:52:43;16.73;;;8.02;;
9461;SDS011;4769;42.660;23.262;2023-09-19T07:55:09;8.30;;;7.50;;
9461;SDS011;4769;42.660;23.262;2023-09-19T07:57:34;13.10;;;8.07;;
9461;SDS011;4769;42.660;23.262;2023-09-19T08:00:03;9.38;;;7.20;;
9461;SDS011;4769;42.660;23.262;2023-09-19T08:02:30;13.73;;;8.38;;
9461;SDS011;4769;42.660;23.262;2023-09-19T08:04:58;9.75;;;7.90;;
9461;SDS011;4769;42.660;23.262;2023-09-19T08:07:24;12.50;;;7.80;;
9461;SDS011;4769;42.660;23.262;2023-09-19T08:09:50;12.38;;;8.27;;
9461;SDS011;4769;42.660;23.262;2023-09-19T08:12:15;12.30;;;8.52;;
9461;SDS011;4769;42.660;23.262;2023-09-19T08:14:41;10.63;;;7.97;;
9461;SDS011;4769;42.660;23.262;2023-09-19T08:17:09;10.23;;;7.63;;
9461;SDS011;4769;42.660;23.262;2023-09-19T08:19:35;12.52;;;9.00;;
9461;SDS011;4769;42.660;23.262;2023-09-19T08:22:01;11.00;;;8.00;;
9461;SDS011;4769;42.660;23.262;2023-09-19T08:24:27;9.05;;;7.57;;
9461;SDS011;4769;42.660;23.262;2023-09-19T08:26:53;10.63;;;7.55;;
9461;SDS011;4769;42.660;23.262;2023-09-19T08:29:20;9.73;;;6.93;;
9461;SDS011;4769;42.660;23.262;2023-09-19T08:31:45;17.38;;;7.90;;
9461;SDS011;4769;42.660;23.262;2023-09-19T08:34:14;8.68;;;7.13;;
9461;SDS011;4769;42.660;23.262;2023-09-19T08:36:39;9.02;;;7.78;;
9461;SDS011;4769;42.660;23.262;2023-09-19T08:39:05;9.02;;;8.05;;
9461;SDS011;4769;42.660;23.262;2023-09-19T08:41:31;10.13;;;7.57;;
9461;SDS011;4769;42.660;23.262;2023-09-19T08:43:58;10.70;;;7.88;;
9461;SDS011;4769;42.660;23.262;2023-09-19T08:46:24;8.68;;;7.38;;
9461;SDS011;4769;42.660;23.262;2023-09-19T08:48:54;9.98;;;6.95;;
9461;SDS011;4769;42.660;23.262;2023-09-19T08:51:30;10.93;;;7.22;;
9461;SDS011;4769;42.660;23.262;2023-09-19T08:54:06;8.55;;;7.10;;
9461;SDS011;4769;42.660;23.262;2023-09-19T08:56:33;7.68;;;6.82;;
9461;SDS011;4769;42.660;23.262;2023-09-19T08:59:03;12.77;;;7.20;;
9461;SDS011;4769;42.660;23.262;2023-09-19T09:01:30;10.77;;;6.80;;
9461;SDS011;4769;42.660;23.262;2023-09-19T09:03:56;7.68;;;6.70;;
9461;SDS011;4769;42.660;23.262;2023-09-19T09:06:23;9.68;;;7.15;;
9461;SDS011;4769;42.660;23.262;2023-09-19T09:08:53;13.75;;;7.40;;
9461;SDS011;4769;42.660;23.262;2023-09-19T09:11:19;9.30;;;6.97;;
9461;SDS011;4769;42.660;23.262;2023-09-19T09:13:45;7.40;;;6.57;;
9461;SDS011;4769;42.660;23.262;2023-09-19T09:16:11;10.43;;;6.93;;
9461;SDS011;4769;42.660;23.262;2023-09-19T09:18:37;10.40;;;7.45;;
9461;SDS011;4769;42.660;23.262;2023-09-19T09:21:02;12.13;;;6.55;;
9461;SDS011;4769;42.660;23.262;2023-09-19T09:23:28;7.82;;;6.57;;
9461;SDS011;4769;42.660;23.262;2023-09-19T09:25:57;9.77;;;7.28;;
9461;SDS011;4769;42.660;23.262;2023-09-19T09:28:24;10.02;;;7.30;;
9461;SDS011;4769;42.660;23.262;2023-09-19T09:30:51;7.88;;;7.03;;
9461;SDS011;4769;42.660;23.262;2023-09-19T09:33:17;13.15;;;7.30;;
9461;SDS011;4769;42.660;23.262;2023-09-19T09:35:49;12.90;;;7.18;;
9461;SDS011;4769;42.660;23.262;2023-09-19T09:38:16;11.45;;;7.57;;
9461;SDS011;4769;42.660;23.262;2023-09-19T09:40:48;9.70;;;7.40;;
9461;SDS011;4769;42.660;23.262;2023-09-19T09:43:27;11.50;;;7.25;;
9461;SDS011;4769;42.660;23.262;2023-09-19T09:48:38;9.23;;;6.40;;
9461;SDS011;4769;42.660;23.262;2023-09-19T09:51:04;8.63;;;6.95;;
9461;SDS011;4769;42.660;23.262;2023-09-19T09:53:30;11.10;;;6.30;;
9461;SDS011;4769;42.660;23.262;2023-09-19T09:55:59;8.80;;;6.82;;
9461;SDS011;4769;42.660;23.262;2023-09-19T09:58:29;9.18;;;6.72;;
9461;SDS011;4769;42.660;23.262;2023-09-19T10:00:55;8.50;;;6.78;;
9461;SDS011;4769;42.660;23.262;2023-09-19T10:03:21;10.65;;;7.38;;
9461;SDS011;4769;42.660;23.262;2023-09-19T10:05:55;8.73;;;6.72;;
9461;SDS011;4769;42.660;23.262;2023-09-19T10:08:21;8.75;;;7.03;;
9461;SDS011;4769;42.660;23.262;2023-09-19T10:10:46;8.13;;;6.78;;
9461;SDS011;4769;42.660;23.262;2023-09-19T10:13:13;10.15;;;6.80;;
9461;SDS011;4769;42.660;23.262;2023-09-19T10:15:42;12.88;;;7.07;;
9461;SDS011;4769;42.660;23.262;2023-09-19T10:18:10;13.65;;;6.82;;
9461;SDS011;4769;42.660;23.262;2023-09-19T10:20:36;11.65;;;8.45;;
9461;SDS011;4769;42.660;23.262;2023-09-19T10:23:04;9.68;;;6.90;;
9461;SDS011;4769;42.660;23.262;2023-09-19T10:25:31;12.13;;;7.28;;
9461;SDS011;4769;42.660;23.262;2023-09-19T10:27:57;10.32;;;7.30;;
9461;SDS011;4769;42.660;23.262;2023-09-19T10:30:25;11.52;;;6.78;;
9461;SDS011;4769;42.660;23.262;2023-09-19T10:32:59;11.07;;;7.25;;
9461;SDS011;4769;42.660;23.262;2023-09-19T10:35:26;7.68;;;6.55;;
9461;SDS011;4769;42.660;23.262;2023-09-19T10:37:54;7.70;;;6.82;;
9461;SDS011;4769;42.660;23.262;2023-09-19T10:40:22;13.02;;;7.28;;
9461;SDS011;4769;42.660;23.262;2023-09-19T10:42:48;8.45;;;6.85;;
9461;SDS011;4769;42.660;23.262;2023-09-19T10:45:16;11.40;;;7.90;;
9461;SDS011;4769;42.660;23.262;2023-09-19T10:47:42;10.57;;;7.75;;
9461;SDS011;4769;42.660;23.262;2023-09-19T10:50:12;9.82;;;6.90;;
9461;SDS011;4769;42.660;23.262;2023-09-19T10:52:45;12.10;;;7.22;;
9461;SDS011;4769;42.660;23.262;2023-09-19T10:55:11;9.82;;;6.90;;
9461;SDS011;4769;42.660;23.262;2023-09-19T10:57:43;9.48;;;7.05;;
9461;SDS011;4769;42.660;23.262;2023-09-19T11:00:09;9.20;;;6.97;;
9461;SDS011;4769;42.660;23.262;2023-09-19T11:02:35;11.88;;;7.55;;
9461;SDS011;4769;42.660;23.262;2023-09-19T11:05:13;11.98;;;7.13;;
9461;SDS011;4769;42.660;23.262;2023-09-19T11:13:23;10.65;;;6.57;;
9461;SDS011;4769;42.660;23.262;2023-09-19T11:18:52;11.20;;;8.13;;
9461;SDS011;4769;42.660;23.262;2023-09-19T11:24:31;9.70;;;7.10;;
9461;SDS011;4769;42.660;23.262;2023-09-19T11:27:10;11.52;;;6.90;;
9461;SDS011;4769;42.660;23.262;2023-09-19T11:29:37;7.88;;;6.63;;
9461;SDS011;4769;42.660;23.262;2023-09-19T11:32:03;9.85;;;6.13;;
9461;SDS011;4769;42.660;23.262;2023-09-19T11:34:38;9.70;;;6.53;;
9461;SDS011;4769;42.660;23.262;2023-09-19T11:40:27;11.40;;;6.72;;
9461;SDS011;4769;42.660;23.262;2023-09-19T11:42:53;9.35;;;6.78;;
9461;SDS011;4769;42.660;23.262;2023-09-19T11:48:15;11.13;;;6.75;;
9461;SDS011;4769;42.660;23.262;2023-09-19T11:50:43;8.15;;;6.88;;
9461;SDS011;4769;42.660;23.262;2023-09-19T11:53:10;11.88;;;6.85;;
9461;SDS011;4769;42.660;23.262;2023-09-19T11:55:39;10.55;;;6.15;;
9461;SDS011;4769;42.660;23.262;2023-09-19T11:58:06;9.43;;;6.25;;
9461;SDS011;4769;42.660;23.262;2023-09-19T12:00:33;7.70;;;6.13;;
9461;SDS011;4769;42.660;23.262;2023-09-19T12:03:01;9.65;;;6.30;;
9461;SDS011;4769;42.660;23.262;2023-09-19T12:05:33;9.45;;;6.30;;
9461;SDS011;4769;42.660;23.262;2023-09-19T12:07:58;10.13;;;6.35;;
9461;SDS011;4769;42.660;23.262;2023-09-19T12:10:24;11.75;;;6.60;;
9461;SDS011;4769;42.660;23.262;2023-09-19T12:12:53;8.30;;;6.00;;
9461;SDS011;4769;42.660;23.262;2023-09-19T12:15:22;10.15;;;6.28;;
9461;SDS011;4769;42.660;23.262;2023-09-19T12:17:48;11.10;;;6.13;;
9461;SDS011;4769;42.660;23.262;2023-09-19T12:20:15;9.50;;;6.25;;
9461;SDS011;4769;42.660;23.262;2023-09-19T12:22:40;7.95;;;5.53;;
9461;SDS011;4769;42.660;23.262;2023-09-19T12:25:06;8.48;;;5.50;;
9461;SDS011;4769;42.660;23.262;2023-09-19T12:27:40;7.72;;;5.55;;
9461;SDS011;4769;42.660;23.262;2023-09-19T12:30:10;10.27;;;6.05;;
9461;SDS011;4769;42.660;23.262;2023-09-19T12:32:36;10.20;;;5.95;;
9461;SDS011;4769;42.660;23.262;2023-09-19T12:35:02;7.25;;;5.20;;
9461;SDS011;4769;42.660;23.262;2023-09-19T12:37:28;8.35;;;5.57;;
9461;SDS011;4769;42.660;23.262;2023-09-19T12:40:02;9.65;;;5.40;;
9461;SDS011;4769;42.660;23.262;2023-09-19T12:42:29;7.32;;;5.10;;
9461;SDS011;4769;42.660;23.262;2023-09-19T12:44:55;12.43;;;5.35;;
9461;SDS011;4769;42.660;23.262;2023-09-19T12:47:24;11.80;;;5.75;;
9461;SDS011;4769;42.660;23.262;2023-09-19T12:52:34;7.20;;;5.80;;
9461;SDS011;4769;42.660;23.262;2023-09-19T12:55:00;11.23;;;5.93;;
9461;SDS011;4769;42.660;23.262;2023-09-19T12:57:26;9.35;;;5.55;;
9461;SDS011;4769;42.660;23.262;2023-09-19T12:59:52;10.05;;;5.25;;
9461;SDS011;4769;42.660;23.262;2023-09-19T13:02:18;8.48;;;5.57;;
9461;SDS011;4769;42.660;23.262;2023-09-19T13:04:54;8.68;;;5.85;;
9461;SDS011;4769;42.660;23.262;2023-09-19T13:10:07;8.00;;;5.70;;
9461;SDS011;4769;42.660;23.262;2023-09-19T13:12:36;8.82;;;5.28;;
9461;SDS011;4769;42.660;23.262;2023-09-19T13:15:08;9.30;;;5.15;;
9461;SDS011;4769;42.660;23.262;2023-09-19T13:17:42;7.13;;;4.90;;
9461;SDS011;4769;42.660;23.262;2023-09-19T13:20:19;7.75;;;5.22;;
9461;SDS011;4769;42.660;23.262;2023-09-19T13:22:46;6.18;;;5.10;;
9461;SDS011;4769;42.660;23.262;2023-09-19T13:25:13;10.52;;;6.07;;
9461;SDS011;4769;42.660;23.262;2023-09-19T13:27:40;8.43;;;5.43;;
9461;SDS011;4769;42.660;23.262;2023-09-19T13:30:07;8.82;;;5.32;;
9461;SDS011;4769;42.660;23.262;2023-09-19T13:32:33;7.57;;;4.97;;
9461;SDS011;4769;42.660;23.262;2023-09-19T13:34:59;6.70;;;4.90;;
9461;SDS011;4769;42.660;23.262;2023-09-19T13:37:27;6.22;;;4.95;;
9461;SDS011;4769;42.660;23.262;2023-09-19T13:39:53;9.38;;;5.03;;
9461;SDS011;4769;42.660;23.262;2023-09-19T13:42:18;6.63;;;5.13;;
9461;SDS011;4769;42.660;23.262;2023-09-19T13:44:44;7.47;;;5.50;;
9461;SDS011;4769;42.660;23.262;2023-09-19T13:47:10;7.82;;;5.63;;
9461;SDS011;4769;42.660;23.262;2023-09-19T13:49:35;7.55;;;5.50;;
9461;SDS011;4769;42.660;23.262;2023-09-19T13:52:01;7.88;;;5.70;;
9461;SDS011;4769;42.660;23.262;2023-09-19T13:54:30;7.13;;;5.20;;
9461;SDS011;4769;42.660;23.262;2023-09-19T13:56:55;7.78;;;5.65;;
9461;SDS011;4769;42.660;23.262;2023-09-19T13:59:22;8.55;;;5.47;;
9461;SDS011;4769;42.660;23.262;2023-09-19T14:01:49;7.88;;;5.50;;
9461;SDS011;4769;42.660;23.262;2023-09-19T14:04:14;13.18;;;5.40;;
9461;SDS011;4769;42.660;23.262;2023-09-19T14:06:41;8.05;;;5.28;;
9461;SDS011;4769;42.660;23.262;2023-09-19T14:09:07;7.47;;;5.47;;
9461;SDS011;4769;42.660;23.262;2023-09-19T14:11:35;7.70;;;4.80;;
9461;SDS011;4769;42.660;23.262;2023-09-19T14:14:01;8.65;;;5.50;;
9461;SDS011;4769;42.660;23.262;2023-09-19T14:16:27;7.05;;;5.50;;
9461;SDS011;4769;42.660;23.262;2023-09-19T14:18:52;6.85;;;4.85;;
9461;SDS011;4769;42.660;23.262;2023-09-19T14:21:18;6.40;;;4.90;;
9461;SDS011;4769;42.660;23.262;2023-09-19T14:23:44;6.43;;;5.38;;
9461;SDS011;4769;42.660;23.262;2023-09-19T14:26:09;6.25;;;5.07;;
9461;SDS011;4769;42.660;23.262;2023-09-19T14:28:38;9.55;;;4.95;;
9461;SDS011;4769;42.660;23.262;2023-09-19T14:31:04;6.63;;;5.18;;
9461;SDS011;4769;42.660;23.262;2023-09-19T14:33:30;6.68;;;5.72;;
9461;SDS011;4769;42.660;23.262;2023-09-19T14:35:56;8.30;;;5.78;;
9461;SDS011;4769;42.660;23.262;2023-09-19T14:38:22;7.05;;;5.28;;
9461;SDS011;4769;42.660;23.262;2023-09-19T14:40:48;10.07;;;5.80;;
9461;SDS011;4769;42.660;23.262;2023-09-19T14:43:13;6.10;;;5.03;;
9461;SDS011;4769;42.660;23.262;2023-09-19T14:45:42;15.52;;;6.90;;
9461;SDS011;4769;42.660;23.262;2023-09-19T14:48:07;9.43;;;5.43;;
9461;SDS011;4769;42.660;23.262;2023-09-19T14:50:33;10.48;;;6.00;;
9461;SDS011;4769;42.660;23.262;2023-09-19T14:52:59;8.85;;;6.40;;
9461;SDS011;4769;42.660;23.262;2023-09-19T14:55:24;8.57;;;6.95;;
9461;SDS011;4769;42.660;23.262;2023-09-19T14:57:50;11.13;;;7.82;;
9461;SDS011;4769;42.660;23.262;2023-09-19T15:00:16;10.73;;;8.40;;
9461;SDS011;4769;42.660;23.262;2023-09-19T15:02:45;14.95;;;7.50;;
9461;SDS011;4769;42.660;23.262;2023-09-19T15:05:10;10.00;;;7.40;;
9461;SDS011;4769;42.660;23.262;2023-09-19T15:07:36;9.25;;;6.68;;
9461;SDS011;4769;42.660;23.262;2023-09-19T15:10:02;8.57;;;5.93;;
9461;SDS011;4769;42.660;23.262;2023-09-19T15:12:28;10.80;;;5.95;;
9461;SDS011;4769;42.660;23.262;2023-09-19T15:14:54;11.00;;;6.28;;
9461;SDS011;4769;42.660;23.262;2023-09-19T15:17:20;10.02;;;6.22;;
9461;SDS011;4769;42.660;23.262;2023-09-19T15:19:49;8.32;;;6.38;;
9461;SDS011;4769;42.660;23.262;2023-09-19T15:22:15;8.85;;;6.47;;
9461;SDS011;4769;42.660;23.262;2023-09-19T15:24:40;12.23;;;6.53;;
9461;SDS011;4769;42.660;23.262;2023-09-19T15:27:06;11.50;;;5.57;;